• Join FlightAware (Why Join?)
  • Login
  • US Flag 
02:38PM EDT


 

Airport Tracker/Info


-or-


 

Live Flight TrackerFlight Track Log ✈ N775NC ✈ 19-Oct-2013 ✈ KATL - KSAV

Flight Track Log - Related Links

Times and Time Zones

All times are in EDT time to prevent confusion due to time zone crossing. See the N775NC flight status page for this flight to view local times or setup timezone preferences in your user account.

Time Position Orientation Groundspeed Altitude Reporting Facility
EDT Latitude Longitude Course Direction KTS MPH feet Rate Location/Type
12:41PM 33.6167 -84.5167 97° East 238 274 3,900  Level Atlanta TRACON
12:42PM 33.5667 -84.5833 228° Southwest 243 280 7,200 2,460 Climbing Atlanta TRACON
12:43PM 33.4822 -84.5742 175° South 278 320 9,700 1,680 Climbing Atlanta Center
12:44PM 33.3794 -83.8571 129° Southeast  Level Estimated
12:44PM 33.4133 -84.5092 142° Southeast 291 335 11,200  Level Atlanta Center
12:45PM 33.2750 -83.8233 165° South  Level FlightAware Approximate
12:45PM 33.3469 -84.4192 131° Southeast 334 384 13,200  Level Atlanta Center
12:46PM 33.2262 -83.7078 97° East  Level Estimated
12:46PM 33.2867 -84.3197 126° Southeast 370 426 15,500  Level Atlanta Center
12:47PM 33.2222 -84.2125 126° Southeast 395 455 17,300 1,800 Climbing Atlanta Center
12:48PM 33.1556 -84.1083 127° Southeast 402 463 19,100 1,680 Climbing Atlanta Center
12:49PM 33.0719 -84.0189 138° Southeast 402 463 20,700 1,440 Climbing Atlanta Center
12:50PM 32.9864 -83.9297 139° Southeast 407 468 22,000 1,140 Climbing Atlanta Center
12:51PM 32.8903 -83.8458 144° Southeast 420 483 23,000 480 Climbing Atlanta Center
12:52PM 32.7878 -83.7669 147° Southeast 433 498 23,000  Level Atlanta Center
12:53PM 32.7000 -83.6489 131° Southeast 447 514 23,000  Level Atlanta Center
12:54PM 32.6556 -83.5011 110° East 463 533 23,000  Level Atlanta Center
12:56PM 32.6546 -83.4059 100° East  Level FlightAware Approximate
01:03PM 32.5485 -82.8091 103° East  Level FlightAware Approximate
01:04PM 32.5315 -82.7241 103° East  Level FlightAware Approximate
01:05PM 32.5095 -82.6428 140° Southeast  Level FlightAware Approximate
01:06PM 32.4822 -82.5638 107° East  Level FlightAware Approximate
01:07PM 32.4608 -82.4803 107° East  Level FlightAware Approximate
01:08PM 32.4393 -82.3968 107° East  Level FlightAware Approximate
01:09PM 32.4177 -82.3133 107° East  Level FlightAware Approximate
01:10PM 32.3961 -82.2299 107° East  Level FlightAware Approximate
01:11PM 32.3745 -82.1466 107° East  Level FlightAware Approximate
01:12PM 32.3573 -82.0623 106° East  Level FlightAware Approximate
01:13PM 32.3364 -81.9787 106° East  Level FlightAware Approximate
01:14PM 32.3154 -81.8951 106° East  Level FlightAware Approximate
01:15PM 32.2946 -81.8116 106° East  Level FlightAware Approximate
01:16PM 32.2709 -81.7292 111° Southeast  Level FlightAware Approximate
01:17PM 32.2452 -81.6476 106° East  Level FlightAware Approximate
01:18PM 32.2244 -81.5640 106° East  Level FlightAware Approximate
01:19PM 32.2035 -81.4806 106° East  Level FlightAware Approximate
01:20PM 32.1752 -81.4005 121° Southeast  Level FlightAware Approximate
01:21PM 32.1546 -81.3183 106° East  Level FlightAware Approximate
01:22PM 32.1315 -81.2370 115° Southeast  Level FlightAware Approximate
01:23PM 32.1167 -81.2000 North  Level FlightAware Approximate
01:24PM 32.1276 -81.2021 North  Level Estimated
01:25PM 32.1276 -81.2021 North  Level Estimated